sensor_id;sensor_type;location;lat;lon;timestamp;pressure;altitude;pressure_sealevel;temperature;humidity
49397;BME280;35615;41.410;2.194;2022-12-18T00:00:11;102254.47;;;15.51;58.94
49397;BME280;35615;41.410;2.194;2022-12-18T00:02:44;102255.31;;;15.50;59.04
49397;BME280;35615;41.410;2.194;2022-12-18T00:05:11;102259.31;;;15.42;58.72
49397;BME280;35615;41.410;2.194;2022-12-18T00:07:39;102255.00;;;15.43;59.01
49397;BME280;35615;41.410;2.194;2022-12-18T00:10:06;102264.53;;;15.42;58.87
49397;BME280;35615;41.410;2.194;2022-12-18T00:12:34;102263.50;;;15.38;58.98
49397;BME280;35615;41.410;2.194;2022-12-18T00:15:02;102268.56;;;15.35;58.87
49397;BME280;35615;41.410;2.194;2022-12-18T00:17:30;102266.53;;;15.28;59.26
49397;BME280;35615;41.410;2.194;2022-12-18T00:19:57;102265.09;;;15.35;59.28
49397;BME280;35615;41.410;2.194;2022-12-18T00:22:24;102263.38;;;15.35;59.15
49397;BME280;35615;41.410;2.194;2022-12-18T00:24:51;102269.34;;;15.33;58.93
49397;BME280;35615;41.410;2.194;2022-12-18T00:27:19;102266.81;;;15.34;59.06
49397;BME280;35615;41.410;2.194;2022-12-18T00:29:47;102272.72;;;15.30;58.80
49397;BME280;35615;41.410;2.194;2022-12-18T00:32:15;102279.47;;;15.27;58.80
49397;BME280;35615;41.410;2.194;2022-12-18T00:34:42;102269.88;;;15.26;58.82
49397;BME280;35615;41.410;2.194;2022-12-18T00:37:10;102284.56;;;15.24;59.58
49397;BME280;35615;41.410;2.194;2022-12-18T00:39:52;102276.56;;;15.19;58.83
49397;BME280;35615;41.410;2.194;2022-12-18T00:42:20;102284.38;;;15.19;59.19
49397;BME280;35615;41.410;2.194;2022-12-18T00:45:10;102288.75;;;15.20;58.57
49397;BME280;35615;41.410;2.194;2022-12-18T00:47:42;102279.97;;;15.18;58.77
49397;BME280;35615;41.410;2.194;2022-12-18T00:50:10;102292.84;;;15.15;58.45
49397;BME280;35615;41.410;2.194;2022-12-18T00:52:43;102298.19;;;15.18;59.00
49397;BME280;35615;41.410;2.194;2022-12-18T00:55:14;102295.47;;;15.15;59.15
49397;BME280;35615;41.410;2.194;2022-12-18T00:57:50;102300.88;;;15.20;58.90
49397;BME280;35615;41.410;2.194;2022-12-18T01:00:17;102301.72;;;15.19;58.11
49397;BME280;35615;41.410;2.194;2022-12-18T01:02:45;102299.72;;;15.13;58.30
49397;BME280;35615;41.410;2.194;2022-12-18T01:05:13;102292.59;;;15.09;58.69
49397;BME280;35615;41.410;2.194;2022-12-18T01:07:42;102302.25;;;15.11;58.93
49397;BME280;35615;41.410;2.194;2022-12-18T01:10:13;102305.69;;;15.10;58.36
49397;BME280;35615;41.410;2.194;2022-12-18T01:12:44;102306.28;;;15.05;58.30
49397;BME280;35615;41.410;2.194;2022-12-18T01:15:12;102314.25;;;15.08;58.25
49397;BME280;35615;41.410;2.194;2022-12-18T01:17:47;102315.03;;;15.07;58.52
49397;BME280;35615;41.410;2.194;2022-12-18T01:20:17;102313.00;;;15.00;58.51
49397;BME280;35615;41.410;2.194;2022-12-18T01:22:45;102319.69;;;14.95;58.42
49397;BME280;35615;41.410;2.194;2022-12-18T01:25:22;102323.28;;;14.97;58.56
49397;BME280;35615;41.410;2.194;2022-12-18T01:27:53;102317.97;;;14.95;58.46
49397;BME280;35615;41.410;2.194;2022-12-18T01:30:21;102323.94;;;14.93;58.20
49397;BME280;35615;41.410;2.194;2022-12-18T01:32:49;102331.31;;;14.83;58.28
49397;BME280;35615;41.410;2.194;2022-12-18T01:35:17;102329.56;;;14.82;58.29
49397;BME280;35615;41.410;2.194;2022-12-18T01:37:49;102333.88;;;14.82;58.18
49397;BME280;35615;41.410;2.194;2022-12-18T01:40:16;102338.47;;;14.88;58.50
49397;BME280;35615;41.410;2.194;2022-12-18T01:42:50;102333.88;;;14.82;58.48
49397;BME280;35615;41.410;2.194;2022-12-18T01:52:53;102339.53;;;14.73;57.87
49397;BME280;35615;41.410;2.194;2022-12-18T01:55:24;102346.59;;;14.76;57.59
49397;BME280;35615;41.410;2.194;2022-12-18T01:57:53;102346.59;;;14.76;58.02
49397;BME280;35615;41.410;2.194;2022-12-18T02:00:31;102345.47;;;14.71;58.14
49397;BME280;35615;41.410;2.194;2022-12-18T02:03:14;102350.47;;;14.66;57.85
49397;BME280;35615;41.410;2.194;2022-12-18T02:05:50;102352.34;;;14.69;58.28
49397;BME280;35615;41.410;2.194;2022-12-18T02:08:27;102355.63;;;14.65;58.08
49397;BME280;35615;41.410;2.194;2022-12-18T02:17:56;102365.78;;;14.60;58.04
49397;BME280;35615;41.410;2.194;2022-12-18T02:20:29;102366.69;;;14.61;58.28
49397;BME280;35615;41.410;2.194;2022-12-18T02:26:08;102376.13;;;14.59;58.01
49397;BME280;35615;41.410;2.194;2022-12-18T02:31:37;102384.69;;;14.56;57.98
49397;BME280;35615;41.410;2.194;2022-12-18T02:34:13;102383.66;;;14.52;58.54
49397;BME280;35615;41.410;2.194;2022-12-18T02:36:47;102384.44;;;14.51;58.27
49397;BME280;35615;41.410;2.194;2022-12-18T02:39:26;102385.19;;;14.49;58.00
49397;BME280;35615;41.410;2.194;2022-12-18T02:42:06;102388.28;;;14.42;58.30
49397;BME280;35615;41.410;2.194;2022-12-18T02:44:51;102387.56;;;14.44;58.00
49397;BME280;35615;41.410;2.194;2022-12-18T02:47:45;102392.44;;;14.38;58.13
49397;BME280;35615;41.410;2.194;2022-12-18T02:50:37;102390.66;;;14.37;58.07
49397;BME280;35615;41.410;2.194;2022-12-18T02:53:34;102398.44;;;14.37;57.85
49397;BME280;35615;41.410;2.194;2022-12-18T02:56:12;102395.84;;;14.37;57.60
49397;BME280;35615;41.410;2.194;2022-12-18T03:04:46;102404.75;;;14.24;57.67
49397;BME280;35615;41.410;2.194;2022-12-18T03:10:34;102424.59;;;14.22;57.84
49397;BME280;35615;41.410;2.194;2022-12-18T03:13:17;102419.31;;;14.21;57.42
49397;BME280;35615;41.410;2.194;2022-12-18T03:15:58;102428.09;;;14.23;57.61
49397;BME280;35615;41.410;2.194;2022-12-18T03:18:52;102425.25;;;14.18;57.53
49397;BME280;35615;41.410;2.194;2022-12-18T03:21:39;102422.41;;;14.14;57.40
49397;BME280;35615;41.410;2.194;2022-12-18T03:24:15;102424.06;;;14.12;57.08
49397;BME280;35615;41.410;2.194;2022-12-18T03:27:05;102425.09;;;14.15;57.60
49397;BME280;35615;41.410;2.194;2022-12-18T03:32:28;102426.41;;;14.07;57.29
49397;BME280;35615;41.410;2.194;2022-12-18T03:38:05;102437.53;;;14.05;56.82
49397;BME280;35615;41.410;2.194;2022-12-18T03:40:47;102433.16;;;14.04;57.10
49397;BME280;35615;41.410;2.194;2022-12-18T03:46:26;102433.97;;;14.03;57.32
49397;BME280;35615;41.410;2.194;2022-12-18T03:55:13;102431.44;;;14.04;56.60
49397;BME280;35615;41.410;2.194;2022-12-18T04:00:47;102429.53;;;14.00;56.70
49397;BME280;35615;41.410;2.194;2022-12-18T04:03:18;102433.75;;;13.98;56.69
49397;BME280;35615;41.410;2.194;2022-12-18T04:06:08;102419.13;;;14.00;56.51
49397;BME280;35615;41.410;2.194;2022-12-18T04:08:54;102419.88;;;13.98;57.55
49397;BME280;35615;41.410;2.194;2022-12-18T04:11:34;102420.50;;;13.93;57.05
49397;BME280;35615;41.410;2.194;2022-12-18T04:14:06;102418.59;;;13.89;56.81
49397;BME280;35615;41.410;2.194;2022-12-18T04:16:50;102413.06;;;13.83;56.79
49397;BME280;35615;41.410;2.194;2022-12-18T04:19:31;102425.41;;;13.87;57.08
49397;BME280;35615;41.410;2.194;2022-12-18T04:22:04;102428.09;;;13.89;56.97
49397;BME280;35615;41.410;2.194;2022-12-18T04:24:43;102426.22;;;13.86;56.84
49397;BME280;35615;41.410;2.194;2022-12-18T04:27:33;102419.16;;;13.84;56.82
49397;BME280;35615;41.410;2.194;2022-12-18T04:30:14;102427.75;;;13.83;56.94
49397;BME280;35615;41.410;2.194;2022-12-18T04:32:53;102427.28;;;13.74;56.82
49397;BME280;35615;41.410;2.194;2022-12-18T04:35:27;102428.84;;;13.70;56.61
49397;BME280;35615;41.410;2.194;2022-12-18T04:37:54;102426.16;;;13.69;56.51
49397;BME280;35615;41.410;2.194;2022-12-18T04:40:30;102424.44;;;13.69;56.43
49397;BME280;35615;41.410;2.194;2022-12-18T04:43:18;102426.09;;;13.67;56.75
49397;BME280;35615;41.410;2.194;2022-12-18T04:45:48;102433.81;;;13.65;56.75
49397;BME280;35615;41.410;2.194;2022-12-18T04:48:22;102429.91;;;13.57;56.78
49397;BME280;35615;41.410;2.194;2022-12-18T04:50:53;102424.47;;;13.53;56.83
49397;BME280;35615;41.410;2.194;2022-12-18T04:53:25;102433.84;;;13.51;56.37
49397;BME280;35615;41.410;2.194;2022-12-18T04:56:03;102431.59;;;13.57;56.82
49397;BME280;35615;41.410;2.194;2022-12-18T04:58:36;102444.50;;;13.55;56.51
49397;BME280;35615;41.410;2.194;2022-12-18T05:01:12;102436.88;;;13.58;56.91
49397;BME280;35615;41.410;2.194;2022-12-18T05:04:01;102450.53;;;13.54;56.76
49397;BME280;35615;41.410;2.194;2022-12-18T05:06:39;102453.19;;;13.56;56.71
49397;BME280;35615;41.410;2.194;2022-12-18T05:09:21;102450.91;;;13.62;57.04
49397;BME280;35615;41.410;2.194;2022-12-18T05:11:56;102467.16;;;13.58;57.08
49397;BME280;35615;41.410;2.194;2022-12-18T05:14:35;102463.66;;;13.57;57.23
49397;BME280;35615;41.410;2.194;2022-12-18T05:17:05;102464.97;;;13.65;56.93
49397;BME280;35615;41.410;2.194;2022-12-18T05:19:41;102469.50;;;13.53;57.19
49397;BME280;35615;41.410;2.194;2022-12-18T05:22:26;102476.06;;;13.63;57.30
49397;BME280;35615;41.410;2.194;2022-12-18T05:24:58;102469.00;;;13.60;57.52
49397;BME280;35615;41.410;2.194;2022-12-18T05:27:37;102470.09;;;13.64;57.37
49397;BME280;35615;41.410;2.194;2022-12-18T05:30:06;102474.28;;;13.62;57.08
49397;BME280;35615;41.410;2.194;2022-12-18T05:32:42;102481.84;;;13.57;56.78
49397;BME280;35615;41.410;2.194;2022-12-18T05:35:13;102479.09;;;13.54;56.88
49397;BME280;35615;41.410;2.194;2022-12-18T05:37:43;102481.41;;;13.50;57.48
49397;BME280;35615;41.410;2.194;2022-12-18T05:40:16;102485.72;;;13.49;57.05
49397;BME280;35615;41.410;2.194;2022-12-18T05:42:49;102490.59;;;13.43;56.93
49397;BME280;35615;41.410;2.194;2022-12-18T05:45:25;102497.22;;;13.38;57.05
49397;BME280;35615;41.410;2.194;2022-12-18T05:47:55;102510.56;;;13.44;57.40
49397;BME280;35615;41.410;2.194;2022-12-18T05:50:22;102509.16;;;13.34;57.75
49397;BME280;35615;41.410;2.194;2022-12-18T05:52:52;102511.16;;;13.40;57.36
49397;BME280;35615;41.410;2.194;2022-12-18T05:55:32;102522.56;;;13.42;57.23
49397;BME280;35615;41.410;2.194;2022-12-18T05:58:04;102526.59;;;13.37;57.18
49397;BME280;35615;41.410;2.194;2022-12-18T06:00:38;102529.75;;;13.31;57.85
49397;BME280;35615;41.410;2.194;2022-12-18T06:03:16;102529.34;;;13.40;57.33
49397;BME280;35615;41.410;2.194;2022-12-18T06:05:51;102544.91;;;13.40;57.60
49397;BME280;35615;41.410;2.194;2022-12-18T06:08:32;102542.31;;;13.40;57.44
49397;BME280;35615;41.410;2.194;2022-12-18T06:11:16;102538.44;;;13.32;57.67
49397;BME280;35615;41.410;2.194;2022-12-18T06:13:51;102545.72;;;13.39;57.58
49397;BME280;35615;41.410;2.194;2022-12-18T06:16:35;102559.66;;;13.25;58.31
49397;BME280;35615;41.410;2.194;2022-12-18T06:19:15;102565.09;;;13.29;58.10
49397;BME280;35615;41.410;2.194;2022-12-18T06:21:49;102571.69;;;13.39;58.47
49397;BME280;35615;41.410;2.194;2022-12-18T06:24:29;102577.06;;;13.42;58.37
49397;BME280;35615;41.410;2.194;2022-12-18T06:27:05;102581.84;;;13.34;58.47
49397;BME280;35615;41.410;2.194;2022-12-18T06:29:40;102581.09;;;13.37;58.64
49397;BME280;35615;41.410;2.194;2022-12-18T06:32:16;102589.78;;;13.37;58.31
49397;BME280;35615;41.410;2.194;2022-12-18T06:34:46;102592.53;;;13.41;58.54
49397;BME280;35615;41.410;2.194;2022-12-18T06:37:21;102584.44;;;13.34;58.49
49397;BME280;35615;41.410;2.194;2022-12-18T06:40:03;102587.53;;;13.44;58.25
49397;BME280;35615;41.410;2.194;2022-12-18T06:42:42;102595.56;;;13.48;58.11
49397;BME280;35615;41.410;2.194;2022-12-18T06:47:53;102594.53;;;13.45;57.81
49397;BME280;35615;41.410;2.194;2022-12-18T06:50:35;102600.69;;;13.47;58.12
49397;BME280;35615;41.410;2.194;2022-12-18T06:53:08;102606.03;;;13.50;58.23
49397;BME280;35615;41.410;2.194;2022-12-18T06:55:39;102613.16;;;13.37;57.94
49397;BME280;35615;41.410;2.194;2022-12-18T06:58:21;102605.53;;;13.41;57.82
49397;BME280;35615;41.410;2.194;2022-12-18T07:00:54;102615.53;;;13.49;57.81
49397;BME280;35615;41.410;2.194;2022-12-18T07:14:54;102611.75;;;13.59;56.91
49397;BME280;35615;41.410;2.194;2022-12-18T07:17:36;102616.69;;;13.54;56.76
49397;BME280;35615;41.410;2.194;2022-12-18T07:20:26;102606.31;;;13.54;56.53
49397;BME280;35615;41.410;2.194;2022-12-18T07:23:02;102612.22;;;13.52;57.03
49397;BME280;35615;41.410;2.194;2022-12-18T07:25:46;102619.31;;;13.54;56.88
49397;BME280;35615;41.410;2.194;2022-12-18T07:28:20;102621.53;;;13.48;56.92
49397;BME280;35615;41.410;2.194;2022-12-18T07:30:56;102630.22;;;13.49;57.00
49397;BME280;35615;41.410;2.194;2022-12-18T07:33:28;102631.28;;;13.52;57.02
49397;BME280;35615;41.410;2.194;2022-12-18T07:36:04;102632.91;;;13.50;56.64
49397;BME280;35615;41.410;2.194;2022-12-18T07:38:37;102631.38;;;13.54;56.88
49397;BME280;35615;41.410;2.194;2022-12-18T07:41:19;102629.41;;;13.50;56.59
49397;BME280;35615;41.410;2.194;2022-12-18T07:43:47;102627.91;;;13.53;57.04
49397;BME280;35615;41.410;2.194;2022-12-18T07:46:17;102622.06;;;13.57;56.65
49397;BME280;35615;41.410;2.194;2022-12-18T07:48:57;102636.38;;;13.51;56.69
49397;BME280;35615;41.410;2.194;2022-12-18T07:51:27;102637.56;;;13.56;56.63
49397;BME280;35615;41.410;2.194;2022-12-18T07:54:02;102633.50;;;13.61;56.72
49397;BME280;35615;41.410;2.194;2022-12-18T07:56:32;102633.41;;;13.59;56.56
49397;BME280;35615;41.410;2.194;2022-12-18T07:58:59;102643.72;;;13.58;56.65
49397;BME280;35615;41.410;2.194;2022-12-18T08:01:29;102642.03;;;13.58;57.17
49397;BME280;35615;41.410;2.194;2022-12-18T08:04:00;102637.72;;;13.59;56.61
49397;BME280;35615;41.410;2.194;2022-12-18T08:06:36;102646.97;;;13.54;56.80
49397;BME280;35615;41.410;2.194;2022-12-18T08:09:03;102637.72;;;13.59;56.74
49397;BME280;35615;41.410;2.194;2022-12-18T08:11:31;102637.88;;;13.62;56.37
49397;BME280;35615;41.410;2.194;2022-12-18T08:14:12;102648.28;;;13.62;56.52
49397;BME280;35615;41.410;2.194;2022-12-18T08:16:54;102652.75;;;13.64;56.47
49397;BME280;35615;41.410;2.194;2022-12-18T08:19:30;102658.03;;;13.66;56.73
49397;BME280;35615;41.410;2.194;2022-12-18T08:25:10;102664.59;;;13.59;56.58
49397;BME280;35615;41.410;2.194;2022-12-18T08:30:51;102668.34;;;13.50;56.31
49397;BME280;35615;41.410;2.194;2022-12-18T08:33:35;102672.16;;;13.71;56.74
49397;BME280;35615;41.410;2.194;2022-12-18T08:36:12;102675.03;;;13.76;55.97
49397;BME280;35615;41.410;2.194;2022-12-18T08:38:45;102683.97;;;13.81;56.13
49397;BME280;35615;41.410;2.194;2022-12-18T08:41:25;102686.03;;;13.72;55.63
49397;BME280;35615;41.410;2.194;2022-12-18T08:43:54;102685.44;;;13.76;55.91
49397;BME280;35615;41.410;2.194;2022-12-18T08:46:41;102685.97;;;13.70;56.11
49397;BME280;35615;41.410;2.194;2022-12-18T08:49:14;102689.09;;;13.79;55.85
49397;BME280;35615;41.410;2.194;2022-12-18T08:51:43;102692.56;;;13.80;55.59
49397;BME280;35615;41.410;2.194;2022-12-18T08:54:13;102705.91;;;13.86;55.96
49397;BME280;35615;41.410;2.194;2022-12-18T08:56:45;102706.41;;;13.95;55.74
49397;BME280;35615;41.410;2.194;2022-12-18T08:59:15;102709.22;;;14.14;55.46
49397;BME280;35615;41.410;2.194;2022-12-18T09:01:48;102706.72;;;14.32;55.08
49397;BME280;35615;41.410;2.194;2022-12-18T09:04:19;102709.38;;;14.48;54.38
49397;BME280;35615;41.410;2.194;2022-12-18T09:06:49;102704.72;;;14.59;53.78
49397;BME280;35615;41.410;2.194;2022-12-18T09:09:25;102717.19;;;14.65;53.42
49397;BME280;35615;41.410;2.194;2022-12-18T09:11:58;102710.75;;;14.74;53.47
49397;BME280;35615;41.410;2.194;2022-12-18T09:14:31;102716.97;;;14.94;52.64
49397;BME280;35615;41.410;2.194;2022-12-18T09:17:15;102715.13;;;15.26;52.15
49397;BME280;35615;41.410;2.194;2022-12-18T09:19:50;102715.53;;;15.51;51.19
49397;BME280;35615;41.410;2.194;2022-12-18T09:22:24;102711.38;;;15.73;50.48
49397;BME280;35615;41.410;2.194;2022-12-18T09:24:54;102710.25;;;16.03;50.00
49397;BME280;35615;41.410;2.194;2022-12-18T09:27:23;102715.94;;;16.32;48.91
49397;BME280;35615;41.410;2.194;2022-12-18T09:29:58;102710.97;;;16.75;48.01
49397;BME280;35615;41.410;2.194;2022-12-18T09:32:31;102716.91;;;17.11;47.35
49397;BME280;35615;41.410;2.194;2022-12-18T09:34:58;102719.19;;;17.45;46.15
49397;BME280;35615;41.410;2.194;2022-12-18T09:37:39;102724.06;;;17.78;45.81
49397;BME280;35615;41.410;2.194;2022-12-18T09:40:16;102713.50;;;18.19;44.67
49397;BME280;35615;41.410;2.194;2022-12-18T09:42:49;102723.72;;;18.59;44.20
49397;BME280;35615;41.410;2.194;2022-12-18T09:45:31;102722.75;;;18.80;43.63
49397;BME280;35615;41.410;2.194;2022-12-18T09:48:04;102726.19;;;18.79;43.23
49397;BME280;35615;41.410;2.194;2022-12-18T09:50:35;102732.25;;;19.02;42.82
49397;BME280;35615;41.410;2.194;2022-12-18T09:53:05;102730.72;;;19.07;42.80
49397;BME280;35615;41.410;2.194;2022-12-18T09:55:37;102733.72;;;19.44;42.50
49397;BME280;35615;41.410;2.194;2022-12-18T10:00:39;102737.13;;;19.67;41.71
49397;BME280;35615;41.410;2.194;2022-12-18T10:03:13;102737.03;;;19.91;41.44
49397;BME280;35615;41.410;2.194;2022-12-18T10:11:24;102737.88;;;20.77;39.61
49397;BME280;35615;41.410;2.194;2022-12-18T10:14:10;102736.00;;;20.73;39.13
49397;BME280;35615;41.410;2.194;2022-12-18T10:16:42;102746.81;;;20.84;39.67
49397;BME280;35615;41.410;2.194;2022-12-18T10:19:34;102747.00;;;20.92;39.06
49397;BME280;35615;41.410;2.194;2022-12-18T10:22:33;102739.78;;;21.16;39.15
49397;BME280;35615;41.410;2.194;2022-12-18T10:28:26;102735.91;;;21.33;39.02
49397;BME280;35615;41.410;2.194;2022-12-18T10:31:12;102727.69;;;21.23;39.20
49397;BME280;35615;41.410;2.194;2022-12-18T10:33:55;102727.16;;;21.34;38.68
49397;BME280;35615;41.410;2.194;2022-12-18T10:36:27;102724.72;;;21.78;37.76
49397;BME280;35615;41.410;2.194;2022-12-18T10:39:03;102728.22;;;21.79;37.64
49397;BME280;35615;41.410;2.194;2022-12-18T10:41:43;102721.97;;;22.50;37.14
49397;BME280;35615;41.410;2.194;2022-12-18T10:46:55;102713.69;;;23.23;36.20
49397;BME280;35615;41.410;2.194;2022-12-18T10:49:37;102721.34;;;23.60;35.14
49397;BME280;35615;41.410;2.194;2022-12-18T10:54:55;102720.81;;;24.46;33.52
49397;BME280;35615;41.410;2.194;2022-12-18T11:02:53;102699.25;;;25.93;31.97
49397;BME280;35615;41.410;2.194;2022-12-18T11:05:33;102694.22;;;26.41;30.64
49397;BME280;35615;41.410;2.194;2022-12-18T11:08:11;102690.78;;;26.89;30.01
49397;BME280;35615;41.410;2.194;2022-12-18T11:10:52;102689.09;;;27.17;29.67
49397;BME280;35615;41.410;2.194;2022-12-18T11:13:27;102693.47;;;27.61;29.48
49397;BME280;35615;41.410;2.194;2022-12-18T11:16:06;102690.81;;;27.55;28.52
49397;BME280;35615;41.410;2.194;2022-12-18T11:18:35;102685.47;;;27.87;28.41
49397;BME280;35615;41.410;2.194;2022-12-18T11:21:07;102691.53;;;28.31;28.15
49397;BME280;35615;41.410;2.194;2022-12-18T11:23:37;102687.72;;;28.75;27.16
49397;BME280;35615;41.410;2.194;2022-12-18T11:29:08;102677.59;;;29.29;26.36
49397;BME280;35615;41.410;2.194;2022-12-18T11:31:38;102673.84;;;29.45;26.29
49397;BME280;35615;41.410;2.194;2022-12-18T11:34:09;102667.56;;;29.56;25.90
49397;BME280;35615;41.410;2.194;2022-12-18T11:36:54;102665.44;;;29.88;25.34
49397;BME280;35615;41.410;2.194;2022-12-18T11:39:33;102671.66;;;29.89;25.50
49397;BME280;35615;41.410;2.194;2022-12-18T11:44:52;102664.50;;;30.60;24.99
49397;BME280;35615;41.410;2.194;2022-12-18T11:47:33;102659.22;;;30.55;25.19
49397;BME280;35615;41.410;2.194;2022-12-18T11:53:10;102664.34;;;30.72;24.95
49397;BME280;35615;41.410;2.194;2022-12-18T12:12:32;102630.69;;;31.64;24.03
49397;BME280;35615;41.410;2.194;2022-12-18T12:31:27;102638.81;;;31.10;25.37
49397;BME280;35615;41.410;2.194;2022-12-18T12:34:21;102631.34;;;31.30;25.02
49397;BME280;35615;41.410;2.194;2022-12-18T12:39:42;102618.38;;;30.53;27.50
49397;BME280;35615;41.410;2.194;2022-12-18T12:42:25;102608.38;;;30.68;26.33
49397;BME280;35615;41.410;2.194;2022-12-18T12:45:38;102601.56;;;31.02;26.75
49397;BME280;35615;41.410;2.194;2022-12-18T12:48:41;102597.66;;;30.71;27.04
49397;BME280;35615;41.410;2.194;2022-12-18T12:51:28;102605.81;;;29.18;29.16
49397;BME280;35615;41.410;2.194;2022-12-18T12:54:02;102600.28;;;29.37;29.32
49397;BME280;35615;41.410;2.194;2022-12-18T13:07:59;102605.84;;;27.48;32.20
49397;BME280;35615;41.410;2.194;2022-12-18T13:10:39;102608.53;;;27.45;32.51
49397;BME280;35615;41.410;2.194;2022-12-18T13:13:15;102610.13;;;28.07;31.33
49397;BME280;35615;41.410;2.194;2022-12-18T13:16:03;102613.91;;;27.12;32.84
49397;BME280;35615;41.410;2.194;2022-12-18T13:18:54;102610.72;;;25.44;35.30
49397;BME280;35615;41.410;2.194;2022-12-18T13:21:29;102604.13;;;26.39;33.51
49397;BME280;35615;41.410;2.194;2022-12-18T13:24:22;102603.28;;;26.84;32.86
49397;BME280;35615;41.410;2.194;2022-12-18T13:26:55;102608.53;;;26.60;33.48
49397;BME280;35615;41.410;2.194;2022-12-18T13:29:44;102612.13;;;27.23;32.79
49397;BME280;35615;41.410;2.194;2022-12-18T13:32:24;102607.63;;;24.89;35.66
49397;BME280;35615;41.410;2.194;2022-12-18T13:48:32;102605.00;;;24.92;36.18
49397;BME280;35615;41.410;2.194;2022-12-18T13:51:06;102602.69;;;25.32;35.87
49397;BME280;35615;41.410;2.194;2022-12-18T13:53:51;102595.41;;;25.03;35.67
49397;BME280;35615;41.410;2.194;2022-12-18T13:56:25;102599.41;;;24.60;37.43
49397;BME280;35615;41.410;2.194;2022-12-18T14:02:22;102601.41;;;24.02;38.37
49397;BME280;35615;41.410;2.194;2022-12-18T14:05:02;102597.00;;;22.36;42.20
49397;BME280;35615;41.410;2.194;2022-12-18T14:07:41;102590.72;;;23.91;39.21
49397;BME280;35615;41.410;2.194;2022-12-18T14:10:19;102588.44;;;23.55;39.95
49397;BME280;35615;41.410;2.194;2022-12-18T14:13:30;102588.88;;;24.61;38.04
49397;BME280;35615;41.410;2.194;2022-12-18T14:18:59;102596.94;;;23.95;39.79
49397;BME280;35615;41.410;2.194;2022-12-18T14:21:47;102602.09;;;23.27;41.53
49397;BME280;35615;41.410;2.194;2022-12-18T14:24:39;102605.03;;;24.12;40.05
49397;BME280;35615;41.410;2.194;2022-12-18T14:27:27;102594.31;;;24.80;38.79
49397;BME280;35615;41.410;2.194;2022-12-18T14:30:25;102601.22;;;23.85;40.67
49397;BME280;35615;41.410;2.194;2022-12-18T14:36:31;102600.13;;;24.41;39.96
49397;BME280;35615;41.410;2.194;2022-12-18T14:39:11;102585.19;;;24.44;39.93
49397;BME280;35615;41.410;2.194;2022-12-18T14:48:30;102590.94;;;24.08;40.82
49397;BME280;35615;41.410;2.194;2022-12-18T14:54:17;102601.66;;;23.55;42.15
49397;BME280;35615;41.410;2.194;2022-12-18T15:00:02;102596.50;;;24.31;40.74
49397;BME280;35615;41.410;2.194;2022-12-18T15:02:41;102597.16;;;22.94;43.08
49397;BME280;35615;41.410;2.194;2022-12-18T15:05:25;102595.81;;;22.67;43.65
49397;BME280;35615;41.410;2.194;2022-12-18T15:11:44;102606.44;;;23.23;42.60
49397;BME280;35615;41.410;2.194;2022-12-18T15:17:03;102596.56;;;22.15;44.63
49397;BME280;35615;41.410;2.194;2022-12-18T15:19:44;102602.97;;;22.73;43.42
49397;BME280;35615;41.410;2.194;2022-12-18T15:28:35;102615.13;;;20.09;49.44
49397;BME280;35615;41.410;2.194;2022-12-18T15:36:34;102613.47;;;20.42;48.70
49397;BME280;35615;41.410;2.194;2022-12-18T15:39:16;102612.28;;;20.97;48.01
49397;BME280;35615;41.410;2.194;2022-12-18T15:41:49;102608.88;;;20.67;48.19
49397;BME280;35615;41.410;2.194;2022-12-18T15:44:45;102614.69;;;20.55;48.52
49397;BME280;35615;41.410;2.194;2022-12-18T15:47:30;102614.69;;;20.25;49.54
49397;BME280;35615;41.410;2.194;2022-12-18T15:52:58;102623.25;;;20.18;49.78
49397;BME280;35615;41.410;2.194;2022-12-18T15:55:51;102632.44;;;20.03;50.19
49397;BME280;35615;41.410;2.194;2022-12-18T16:01:41;102625.31;;;19.15;52.46
49397;BME280;35615;41.410;2.194;2022-12-18T16:04:20;102625.69;;;19.55;51.53
49397;BME280;35615;41.410;2.194;2022-12-18T16:07:13;102631.94;;;19.85;51.03
49397;BME280;35615;41.410;2.194;2022-12-18T16:12:53;102639.66;;;19.27;52.70
49397;BME280;35615;41.410;2.194;2022-12-18T16:15:24;102631.66;;;19.76;51.22
49397;BME280;35615;41.410;2.194;2022-12-18T16:18:14;102639.47;;;19.75;51.52
49397;BME280;35615;41.410;2.194;2022-12-18T16:21:07;102646.25;;;19.41;52.30
49397;BME280;35615;41.410;2.194;2022-12-18T16:23:53;102637.19;;;19.31;52.25
49397;BME280;35615;41.410;2.194;2022-12-18T16:26:37;102647.91;;;19.39;52.31
49397;BME280;35615;41.410;2.194;2022-12-18T16:29:16;102651.41;;;19.39;52.18
49397;BME280;35615;41.410;2.194;2022-12-18T16:37:48;102644.56;;;18.65;54.92
49397;BME280;35615;41.410;2.194;2022-12-18T16:43:42;102639.16;;;18.38;55.72
49397;BME280;35615;41.410;2.194;2022-12-18T16:52:17;102643.69;;;18.42;55.63
49397;BME280;35615;41.410;2.194;2022-12-18T16:57:59;102639.50;;;18.23;56.16
49397;BME280;35615;41.410;2.194;2022-12-18T17:00:57;102641.44;;;18.05;57.14
49397;BME280;35615;41.410;2.194;2022-12-18T17:03:36;102645.00;;;18.29;56.44
49397;BME280;35615;41.410;2.194;2022-12-18T17:06:47;102645.03;;;18.31;56.21
49397;BME280;35615;41.410;2.194;2022-12-18T17:18:56;102649.19;;;17.80;57.97
49397;BME280;35615;41.410;2.194;2022-12-18T17:21:35;102654.34;;;17.78;57.90
49397;BME280;35615;41.410;2.194;2022-12-18T17:33:21;102672.28;;;17.69;59.01
49397;BME280;35615;41.410;2.194;2022-12-18T17:36:14;102668.94;;;17.09;60.73
49397;BME280;35615;41.410;2.194;2022-12-18T17:50:48;102684.53;;;17.70;59.40
49397;BME280;35615;41.410;2.194;2022-12-18T17:53:28;102686.16;;;17.89;58.87
49397;BME280;35615;41.410;2.194;2022-12-18T17:56:16;102693.09;;;17.88;58.74
49397;BME280;35615;41.410;2.194;2022-12-18T18:04:44;102693.31;;;17.51;60.24